sensor_id;sensor_type;location;lat;lon;timestamp;P1;durP1;ratioP1;P2;durP2;ratioP2
21677;SDS011;11000;50.360;7.582;2022-09-09T00:02:19;3.97;;;0.87;;
21677;SDS011;11000;50.360;7.582;2022-09-09T00:04:43;2.53;;;1.60;;
21677;SDS011;11000;50.360;7.582;2022-09-09T00:10:43;3.00;;;1.10;;
21677;SDS011;11000;50.360;7.582;2022-09-09T00:16:00;3.73;;;1.00;;
21677;SDS011;11000;50.360;7.582;2022-09-09T00:21:06;4.60;;;0.97;;
21677;SDS011;11000;50.360;7.582;2022-09-09T00:23:34;4.97;;;1.23;;
21677;SDS011;11000;50.360;7.582;2022-09-09T00:26:03;3.60;;;1.03;;
21677;SDS011;11000;50.360;7.582;2022-09-09T00:28:26;1.97;;;1.00;;
21677;SDS011;11000;50.360;7.582;2022-09-09T00:30:50;0.90;;;0.60;;
21677;SDS011;11000;50.360;7.582;2022-09-09T00:33:11;3.43;;;1.03;;
21677;SDS011;11000;50.360;7.582;2022-09-09T00:35:38;3.63;;;1.20;;
21677;SDS011;11000;50.360;7.582;2022-09-09T00:38:10;2.07;;;0.90;;
21677;SDS011;11000;50.360;7.582;2022-09-09T00:40:55;3.43;;;0.90;;
21677;SDS011;11000;50.360;7.582;2022-09-09T00:43:30;6.30;;;1.10;;
21677;SDS011;11000;50.360;7.582;2022-09-09T00:45:55;3.20;;;1.10;;
21677;SDS011;11000;50.360;7.582;2022-09-09T00:48:32;2.53;;;0.77;;
21677;SDS011;11000;50.360;7.582;2022-09-09T00:51:02;4.10;;;1.30;;
21677;SDS011;11000;50.360;7.582;2022-09-09T00:56:25;2.67;;;1.00;;
21677;SDS011;11000;50.360;7.582;2022-09-09T01:01:24;3.53;;;1.37;;
21677;SDS011;11000;50.360;7.582;2022-09-09T01:03:49;3.60;;;0.90;;
21677;SDS011;11000;50.360;7.582;2022-09-09T01:11:37;3.80;;;1.03;;
21677;SDS011;11000;50.360;7.582;2022-09-09T01:16:56;2.47;;;1.03;;
21677;SDS011;11000;50.360;7.582;2022-09-09T01:22:19;2.17;;;1.10;;
21677;SDS011;11000;50.360;7.582;2022-09-09T01:27:51;2.10;;;0.80;;
21677;SDS011;11000;50.360;7.582;2022-09-09T01:30:17;2.60;;;1.10;;
21677;SDS011;11000;50.360;7.582;2022-09-09T01:32:42;2.83;;;0.63;;
21677;SDS011;11000;50.360;7.582;2022-09-09T01:35:05;2.87;;;1.20;;
21677;SDS011;11000;50.360;7.582;2022-09-09T01:37:30;6.17;;;1.10;;
21677;SDS011;11000;50.360;7.582;2022-09-09T01:39:51;3.17;;;1.20;;
21677;SDS011;11000;50.360;7.582;2022-09-09T01:42:13;2.73;;;0.83;;
21677;SDS011;11000;50.360;7.582;2022-09-09T01:44:36;3.50;;;0.90;;
21677;SDS011;11000;50.360;7.582;2022-09-09T01:46:57;4.30;;;1.03;;
21677;SDS011;11000;50.360;7.582;2022-09-09T01:49:18;3.80;;;1.40;;
21677;SDS011;11000;50.360;7.582;2022-09-09T01:51:39;3.60;;;1.00;;
21677;SDS011;11000;50.360;7.582;2022-09-09T01:54:02;2.23;;;1.17;;
21677;SDS011;11000;50.360;7.582;2022-09-09T01:59:24;3.83;;;0.90;;
21677;SDS011;11000;50.360;7.582;2022-09-09T02:04:40;3.57;;;1.00;;
21677;SDS011;11000;50.360;7.582;2022-09-09T02:07:03;2.93;;;1.30;;
21677;SDS011;11000;50.360;7.582;2022-09-09T02:09:34;2.60;;;1.20;;
21677;SDS011;11000;50.360;7.582;2022-09-09T02:11:58;2.97;;;1.07;;
21677;SDS011;11000;50.360;7.582;2022-09-09T02:14:34;3.87;;;0.90;;
21677;SDS011;11000;50.360;7.582;2022-09-09T02:17:01;3.93;;;1.17;;
21677;SDS011;11000;50.360;7.582;2022-09-09T02:19:34;2.57;;;0.87;;
21677;SDS011;11000;50.360;7.582;2022-09-09T02:21:59;3.27;;;1.20;;
21677;SDS011;11000;50.360;7.582;2022-09-09T02:24:21;1.57;;;0.80;;
21677;SDS011;11000;50.360;7.582;2022-09-09T02:26:42;4.77;;;1.03;;
21677;SDS011;11000;50.360;7.582;2022-09-09T02:29:07;2.70;;;1.10;;
21677;SDS011;11000;50.360;7.582;2022-09-09T02:31:33;2.97;;;1.00;;
21677;SDS011;11000;50.360;7.582;2022-09-09T02:33:56;3.63;;;1.23;;
21677;SDS011;11000;50.360;7.582;2022-09-09T02:36:20;1.57;;;0.80;;
21677;SDS011;11000;50.360;7.582;2022-09-09T02:38:47;3.97;;;1.00;;
21677;SDS011;11000;50.360;7.582;2022-09-09T02:41:12;4.00;;;0.87;;
21677;SDS011;11000;50.360;7.582;2022-09-09T02:43:33;4.23;;;1.13;;
21677;SDS011;11000;50.360;7.582;2022-09-09T02:48:44;6.73;;;0.87;;
21677;SDS011;11000;50.360;7.582;2022-09-09T02:51:27;2.00;;;0.93;;
21677;SDS011;11000;50.360;7.582;2022-09-09T02:56:54;2.87;;;1.10;;
21677;SDS011;11000;50.360;7.582;2022-09-09T02:59:16;4.00;;;1.40;;
21677;SDS011;11000;50.360;7.582;2022-09-09T03:01:38;2.80;;;1.10;;
21677;SDS011;11000;50.360;7.582;2022-09-09T03:03:59;3.13;;;0.80;;
21677;SDS011;11000;50.360;7.582;2022-09-09T03:06:20;3.97;;;1.10;;
21677;SDS011;11000;50.360;7.582;2022-09-09T03:08:41;4.73;;;1.70;;
21677;SDS011;11000;50.360;7.582;2022-09-09T03:11:02;4.13;;;0.97;;
21677;SDS011;11000;50.360;7.582;2022-09-09T03:13:22;2.17;;;1.27;;
21677;SDS011;11000;50.360;7.582;2022-09-09T03:15:43;4.57;;;1.30;;
21677;SDS011;11000;50.360;7.582;2022-09-09T03:18:03;3.43;;;1.17;;
21677;SDS011;11000;50.360;7.582;2022-09-09T03:20:24;4.17;;;1.30;;
21677;SDS011;11000;50.360;7.582;2022-09-09T03:22:46;1.67;;;0.80;;
21677;SDS011;11000;50.360;7.582;2022-09-09T03:25:06;3.10;;;1.00;;
21677;SDS011;11000;50.360;7.582;2022-09-09T03:27:27;4.33;;;1.00;;
21677;SDS011;11000;50.360;7.582;2022-09-09T03:29:49;2.20;;;1.20;;
21677;SDS011;11000;50.360;7.582;2022-09-09T03:32:11;4.03;;;1.30;;
21677;SDS011;11000;50.360;7.582;2022-09-09T03:34:32;4.10;;;1.47;;
21677;SDS011;11000;50.360;7.582;2022-09-09T03:36:53;3.80;;;1.27;;
21677;SDS011;11000;50.360;7.582;2022-09-09T03:39:13;4.63;;;1.17;;
21677;SDS011;11000;50.360;7.582;2022-09-09T03:41:34;4.50;;;1.03;;
21677;SDS011;11000;50.360;7.582;2022-09-09T03:43:54;3.73;;;1.00;;
21677;SDS011;11000;50.360;7.582;2022-09-09T03:46:15;2.37;;;1.03;;
21677;SDS011;11000;50.360;7.582;2022-09-09T03:48:35;5.50;;;1.10;;
21677;SDS011;11000;50.360;7.582;2022-09-09T03:50:56;5.97;;;1.87;;
21677;SDS011;11000;50.360;7.582;2022-09-09T03:53:21;4.03;;;0.90;;
21677;SDS011;11000;50.360;7.582;2022-09-09T03:55:43;7.03;;;1.50;;
21677;SDS011;11000;50.360;7.582;2022-09-09T03:58:07;3.50;;;0.90;;
21677;SDS011;11000;50.360;7.582;2022-09-09T04:00:27;12.03;;;1.40;;
21677;SDS011;11000;50.360;7.582;2022-09-09T04:02:50;3.53;;;1.53;;
21677;SDS011;11000;50.360;7.582;2022-09-09T04:05:11;2.27;;;0.93;;
21677;SDS011;11000;50.360;7.582;2022-09-09T04:07:33;3.17;;;1.10;;
21677;SDS011;11000;50.360;7.582;2022-09-09T04:09:53;4.10;;;1.30;;
21677;SDS011;11000;50.360;7.582;2022-09-09T04:12:14;4.13;;;1.33;;
21677;SDS011;11000;50.360;7.582;2022-09-09T04:14:36;3.30;;;1.00;;
21677;SDS011;11000;50.360;7.582;2022-09-09T04:16:57;3.43;;;1.00;;
21677;SDS011;11000;50.360;7.582;2022-09-09T04:19:19;9.77;;;1.43;;
21677;SDS011;11000;50.360;7.582;2022-09-09T04:21:40;2.93;;;1.20;;
21677;SDS011;11000;50.360;7.582;2022-09-09T04:24:01;4.87;;;1.50;;
21677;SDS011;11000;50.360;7.582;2022-09-09T04:26:21;3.63;;;1.33;;
21677;SDS011;11000;50.360;7.582;2022-09-09T04:28:42;3.03;;;1.17;;
21677;SDS011;11000;50.360;7.582;2022-09-09T04:31:04;2.87;;;1.30;;
21677;SDS011;11000;50.360;7.582;2022-09-09T04:33:30;4.40;;;1.40;;
21677;SDS011;11000;50.360;7.582;2022-09-09T04:35:51;5.67;;;1.80;;
21677;SDS011;11000;50.360;7.582;2022-09-09T04:38:13;3.97;;;1.37;;
21677;SDS011;11000;50.360;7.582;2022-09-09T04:40:35;4.30;;;1.37;;
21677;SDS011;11000;50.360;7.582;2022-09-09T04:42:59;2.67;;;1.10;;
21677;SDS011;11000;50.360;7.582;2022-09-09T04:45:20;4.03;;;1.20;;
21677;SDS011;11000;50.360;7.582;2022-09-09T04:47:41;3.37;;;1.20;;
21677;SDS011;11000;50.360;7.582;2022-09-09T04:50:02;4.10;;;1.23;;
21677;SDS011;11000;50.360;7.582;2022-09-09T04:52:23;3.40;;;1.40;;
21677;SDS011;11000;50.360;7.582;2022-09-09T04:54:43;3.13;;;1.40;;
21677;SDS011;11000;50.360;7.582;2022-09-09T04:57:05;4.23;;;1.10;;
21677;SDS011;11000;50.360;7.582;2022-09-09T04:59:26;1.70;;;1.00;;
21677;SDS011;11000;50.360;7.582;2022-09-09T05:01:47;3.37;;;1.47;;
21677;SDS011;11000;50.360;7.582;2022-09-09T05:04:10;4.10;;;1.10;;
21677;SDS011;11000;50.360;7.582;2022-09-09T05:06:31;4.17;;;1.30;;
21677;SDS011;11000;50.360;7.582;2022-09-09T05:08:52;3.33;;;1.37;;
21677;SDS011;11000;50.360;7.582;2022-09-09T05:11:13;2.67;;;1.27;;
21677;SDS011;11000;50.360;7.582;2022-09-09T05:13:36;2.43;;;1.00;;
21677;SDS011;11000;50.360;7.582;2022-09-09T05:15:56;2.47;;;1.40;;
21677;SDS011;11000;50.360;7.582;2022-09-09T05:18:17;3.93;;;1.60;;
21677;SDS011;11000;50.360;7.582;2022-09-09T05:20:38;6.27;;;1.93;;
21677;SDS011;11000;50.360;7.582;2022-09-09T05:22:58;5.87;;;1.40;;
21677;SDS011;11000;50.360;7.582;2022-09-09T05:25:19;2.87;;;1.30;;
21677;SDS011;11000;50.360;7.582;2022-09-09T05:27:39;5.33;;;1.50;;
21677;SDS011;11000;50.360;7.582;2022-09-09T05:30:00;5.57;;;1.40;;
21677;SDS011;11000;50.360;7.582;2022-09-09T05:32:20;4.70;;;2.00;;
21677;SDS011;11000;50.360;7.582;2022-09-09T05:34:41;3.30;;;1.20;;
21677;SDS011;11000;50.360;7.582;2022-09-09T05:37:01;5.93;;;1.30;;
21677;SDS011;11000;50.360;7.582;2022-09-09T05:39:22;5.57;;;1.63;;
21677;SDS011;11000;50.360;7.582;2022-09-09T05:41:42;6.10;;;1.60;;
21677;SDS011;11000;50.360;7.582;2022-09-09T05:44:03;7.67;;;1.63;;
21677;SDS011;11000;50.360;7.582;2022-09-09T05:46:24;5.50;;;1.30;;
21677;SDS011;11000;50.360;7.582;2022-09-09T05:48:46;3.83;;;1.30;;
21677;SDS011;11000;50.360;7.582;2022-09-09T05:51:08;3.60;;;1.30;;
21677;SDS011;11000;50.360;7.582;2022-09-09T05:53:35;4.70;;;1.57;;
21677;SDS011;11000;50.360;7.582;2022-09-09T05:56:02;5.93;;;1.70;;
21677;SDS011;11000;50.360;7.582;2022-09-09T05:58:27;6.60;;;1.30;;
21677;SDS011;11000;50.360;7.582;2022-09-09T06:00:47;5.37;;;1.40;;
21677;SDS011;11000;50.360;7.582;2022-09-09T06:03:09;6.77;;;1.67;;
21677;SDS011;11000;50.360;7.582;2022-09-09T06:05:31;4.07;;;1.63;;
21677;SDS011;11000;50.360;7.582;2022-09-09T06:07:54;4.10;;;1.30;;
21677;SDS011;11000;50.360;7.582;2022-09-09T06:10:15;5.53;;;1.20;;
21677;SDS011;11000;50.360;7.582;2022-09-09T06:12:35;4.10;;;1.23;;
21677;SDS011;11000;50.360;7.582;2022-09-09T06:14:56;3.17;;;1.17;;
21677;SDS011;11000;50.360;7.582;2022-09-09T06:17:16;4.40;;;1.27;;
21677;SDS011;11000;50.360;7.582;2022-09-09T06:19:37;6.03;;;1.60;;
21677;SDS011;11000;50.360;7.582;2022-09-09T06:21:58;5.80;;;1.50;;
21677;SDS011;11000;50.360;7.582;2022-09-09T06:24:18;4.20;;;1.60;;
21677;SDS011;11000;50.360;7.582;2022-09-09T06:26:39;8.97;;;1.93;;
21677;SDS011;11000;50.360;7.582;2022-09-09T06:29:01;6.57;;;1.40;;
21677;SDS011;11000;50.360;7.582;2022-09-09T06:31:25;4.60;;;1.53;;
21677;SDS011;11000;50.360;7.582;2022-09-09T06:33:50;5.33;;;1.43;;
21677;SDS011;11000;50.360;7.582;2022-09-09T06:36:13;4.70;;;1.23;;
21677;SDS011;11000;50.360;7.582;2022-09-09T06:38:35;4.90;;;1.60;;
21677;SDS011;11000;50.360;7.582;2022-09-09T06:40:57;4.67;;;1.10;;
21677;SDS011;11000;50.360;7.582;2022-09-09T06:43:19;6.67;;;1.50;;
21677;SDS011;11000;50.360;7.582;2022-09-09T06:45:39;6.77;;;1.60;;
21677;SDS011;11000;50.360;7.582;2022-09-09T06:48:00;4.90;;;1.30;;
21677;SDS011;11000;50.360;7.582;2022-09-09T06:50:21;7.40;;;1.83;;
21677;SDS011;11000;50.360;7.582;2022-09-09T06:52:41;4.97;;;1.33;;
21677;SDS011;11000;50.360;7.582;2022-09-09T06:55:02;4.10;;;1.20;;
21677;SDS011;11000;50.360;7.582;2022-09-09T06:57:23;6.20;;;1.40;;
21677;SDS011;11000;50.360;7.582;2022-09-09T06:59:44;4.97;;;1.57;;
21677;SDS011;11000;50.360;7.582;2022-09-09T07:02:04;5.70;;;1.73;;
21677;SDS011;11000;50.360;7.582;2022-09-09T07:04:25;4.73;;;1.20;;
21677;SDS011;11000;50.360;7.582;2022-09-09T07:06:46;5.00;;;1.13;;
21677;SDS011;11000;50.360;7.582;2022-09-09T07:09:08;2.03;;;1.20;;
21677;SDS011;11000;50.360;7.582;2022-09-09T07:11:31;8.40;;;1.50;;
21677;SDS011;11000;50.360;7.582;2022-09-09T07:13:53;5.80;;;1.30;;
21677;SDS011;11000;50.360;7.582;2022-09-09T07:16:15;3.70;;;1.03;;
21677;SDS011;11000;50.360;7.582;2022-09-09T07:18:37;5.53;;;1.13;;
21677;SDS011;11000;50.360;7.582;2022-09-09T07:20:59;6.93;;;1.47;;
21677;SDS011;11000;50.360;7.582;2022-09-09T07:23:21;3.37;;;0.87;;
21677;SDS011;11000;50.360;7.582;2022-09-09T07:25:45;4.53;;;1.07;;
21677;SDS011;11000;50.360;7.582;2022-09-09T07:28:05;4.00;;;1.10;;
21677;SDS011;11000;50.360;7.582;2022-09-09T07:30:28;6.80;;;1.13;;
21677;SDS011;11000;50.360;7.582;2022-09-09T07:32:50;5.00;;;1.27;;
21677;SDS011;11000;50.360;7.582;2022-09-09T07:35:11;3.23;;;1.50;;
21677;SDS011;11000;50.360;7.582;2022-09-09T07:37:32;5.33;;;1.40;;
21677;SDS011;11000;50.360;7.582;2022-09-09T07:39:55;5.57;;;1.13;;
21677;SDS011;11000;50.360;7.582;2022-09-09T07:42:16;4.00;;;1.00;;
21677;SDS011;11000;50.360;7.582;2022-09-09T07:44:37;4.33;;;1.03;;
21677;SDS011;11000;50.360;7.582;2022-09-09T07:46:59;4.97;;;1.03;;
21677;SDS011;11000;50.360;7.582;2022-09-09T07:49:20;5.90;;;1.00;;
21677;SDS011;11000;50.360;7.582;2022-09-09T07:51:42;5.60;;;1.10;;
21677;SDS011;11000;50.360;7.582;2022-09-09T07:54:05;5.37;;;1.37;;
21677;SDS011;11000;50.360;7.582;2022-09-09T07:56:29;5.57;;;1.27;;
21677;SDS011;11000;50.360;7.582;2022-09-09T07:58:51;6.70;;;1.27;;
21677;SDS011;11000;50.360;7.582;2022-09-09T08:01:14;4.67;;;1.20;;
21677;SDS011;11000;50.360;7.582;2022-09-09T08:03:38;5.13;;;1.10;;
21677;SDS011;11000;50.360;7.582;2022-09-09T08:06:02;5.10;;;1.03;;
21677;SDS011;11000;50.360;7.582;2022-09-09T08:08:24;5.40;;;1.10;;
21677;SDS011;11000;50.360;7.582;2022-09-09T08:10:45;4.17;;;0.80;;
21677;SDS011;11000;50.360;7.582;2022-09-09T08:13:05;6.77;;;0.90;;
21677;SDS011;11000;50.360;7.582;2022-09-09T08:15:26;6.13;;;1.13;;
21677;SDS011;11000;50.360;7.582;2022-09-09T08:17:46;4.33;;;1.20;;
21677;SDS011;11000;50.360;7.582;2022-09-09T08:20:07;4.57;;;1.20;;
21677;SDS011;11000;50.360;7.582;2022-09-09T08:22:28;3.00;;;1.00;;
21677;SDS011;11000;50.360;7.582;2022-09-09T08:24:49;8.00;;;1.07;;
21677;SDS011;11000;50.360;7.582;2022-09-09T08:27:09;7.93;;;1.80;;
21677;SDS011;11000;50.360;7.582;2022-09-09T08:29:30;3.97;;;1.03;;
21677;SDS011;11000;50.360;7.582;2022-09-09T08:31:51;4.53;;;1.37;;
21677;SDS011;11000;50.360;7.582;2022-09-09T08:34:14;2.97;;;1.00;;
21677;SDS011;11000;50.360;7.582;2022-09-09T08:36:37;5.50;;;1.40;;
21677;SDS011;11000;50.360;7.582;2022-09-09T08:38:59;5.57;;;1.10;;
21677;SDS011;11000;50.360;7.582;2022-09-09T08:43:50;3.33;;;1.17;;
21677;SDS011;11000;50.360;7.582;2022-09-09T08:48:56;2.23;;;0.70;;
21677;SDS011;11000;50.360;7.582;2022-09-09T08:51:21;3.93;;;1.40;;
21677;SDS011;11000;50.360;7.582;2022-09-09T08:53:50;4.20;;;1.20;;
21677;SDS011;11000;50.360;7.582;2022-09-09T08:56:44;4.30;;;1.10;;
21677;SDS011;11000;50.360;7.582;2022-09-09T08:58:59;5.20;;;1.10;;
21677;SDS011;11000;50.360;7.582;2022-09-09T09:06:54;3.80;;;1.03;;
21677;SDS011;11000;50.360;7.582;2022-09-09T09:12:19;2.87;;;0.83;;
21677;SDS011;11000;50.360;7.582;2022-09-09T09:14:43;6.10;;;1.53;;
21677;SDS011;11000;50.360;7.582;2022-09-09T09:17:07;3.97;;;1.00;;
21677;SDS011;11000;50.360;7.582;2022-09-09T09:19:33;4.67;;;1.00;;
21677;SDS011;11000;50.360;7.582;2022-09-09T09:22:04;4.60;;;1.10;;
21677;SDS011;11000;50.360;7.582;2022-09-09T09:29:55;3.50;;;0.73;;
21677;SDS011;11000;50.360;7.582;2022-09-09T09:32:18;5.37;;;1.50;;
21677;SDS011;11000;50.360;7.582;2022-09-09T09:34:40;4.80;;;1.10;;
21677;SDS011;11000;50.360;7.582;2022-09-09T09:37:01;5.57;;;1.07;;
21677;SDS011;11000;50.360;7.582;2022-09-09T09:39:25;5.93;;;1.00;;
21677;SDS011;11000;50.360;7.582;2022-09-09T09:41:51;5.33;;;1.27;;
21677;SDS011;11000;50.360;7.582;2022-09-09T09:46:49;2.53;;;0.90;;
21677;SDS011;11000;50.360;7.582;2022-09-09T09:49:09;4.23;;;1.10;;
21677;SDS011;11000;50.360;7.582;2022-09-09T09:51:31;4.07;;;1.27;;
21677;SDS011;11000;50.360;7.582;2022-09-09T09:53:52;4.13;;;1.13;;
21677;SDS011;11000;50.360;7.582;2022-09-09T09:56:13;3.93;;;0.70;;
21677;SDS011;11000;50.360;7.582;2022-09-09T09:58:47;3.53;;;0.83;;
21677;SDS011;11000;50.360;7.582;2022-09-09T10:01:23;3.57;;;1.00;;
21677;SDS011;11000;50.360;7.582;2022-09-09T10:03:51;4.53;;;0.83;;
21677;SDS011;11000;50.360;7.582;2022-09-09T10:06:13;2.43;;;0.60;;
21677;SDS011;11000;50.360;7.582;2022-09-09T10:08:43;5.30;;;0.93;;
21677;SDS011;11000;50.360;7.582;2022-09-09T10:11:15;3.57;;;1.13;;
21677;SDS011;11000;50.360;7.582;2022-09-09T10:16:35;2.77;;;0.87;;
21677;SDS011;11000;50.360;7.582;2022-09-09T10:19:10;3.13;;;0.90;;
21677;SDS011;11000;50.360;7.582;2022-09-09T10:22:10;3.73;;;0.90;;
21677;SDS011;11000;50.360;7.582;2022-09-09T10:38:11;4.17;;;0.87;;
21677;SDS011;11000;50.360;7.582;2022-09-09T10:40:35;5.00;;;0.80;;
21677;SDS011;11000;50.360;7.582;2022-09-09T10:48:55;3.70;;;0.80;;
21677;SDS011;11000;50.360;7.582;2022-09-09T10:51:33;2.50;;;0.77;;
21677;SDS011;11000;50.360;7.582;2022-09-09T10:56:55;5.43;;;1.10;;
21677;SDS011;11000;50.360;7.582;2022-09-09T10:59:33;3.33;;;0.90;;
21677;SDS011;11000;50.360;7.582;2022-09-09T11:02:03;3.87;;;0.90;;
21677;SDS011;11000;50.360;7.582;2022-09-09T11:04:31;4.07;;;0.80;;
21677;SDS011;11000;50.360;7.582;2022-09-09T11:06:55;2.70;;;0.60;;
21677;SDS011;11000;50.360;7.582;2022-09-09T11:09:16;3.30;;;0.87;;
21677;SDS011;11000;50.360;7.582;2022-09-09T11:11:42;2.67;;;0.97;;
21677;SDS011;11000;50.360;7.582;2022-09-09T11:14:19;2.10;;;0.67;;
21677;SDS011;11000;50.360;7.582;2022-09-09T11:17:03;2.73;;;0.80;;
21677;SDS011;11000;50.360;7.582;2022-09-09T11:19:31;3.33;;;0.70;;
21677;SDS011;11000;50.360;7.582;2022-09-09T11:21:55;5.30;;;0.93;;
21677;SDS011;11000;50.360;7.582;2022-09-09T11:24:32;4.17;;;1.10;;
21677;SDS011;11000;50.360;7.582;2022-09-09T11:27:02;3.53;;;1.20;;
21677;SDS011;11000;50.360;7.582;2022-09-09T11:37:55;2.07;;;0.90;;
21677;SDS011;11000;50.360;7.582;2022-09-09T11:40:25;4.27;;;0.77;;
21677;SDS011;11000;50.360;7.582;2022-09-09T11:42:47;2.53;;;0.80;;
21677;SDS011;11000;50.360;7.582;2022-09-09T11:45:30;2.30;;;0.70;;
21677;SDS011;11000;50.360;7.582;2022-09-09T11:47:52;2.73;;;0.63;;
21677;SDS011;11000;50.360;7.582;2022-09-09T11:55:36;4.70;;;0.90;;
21677;SDS011;11000;50.360;7.582;2022-09-09T11:58:05;3.57;;;0.77;;
21677;SDS011;11000;50.360;7.582;2022-09-09T12:00:41;4.60;;;0.73;;
21677;SDS011;11000;50.360;7.582;2022-09-09T12:03:04;4.50;;;0.80;;
21677;SDS011;11000;50.360;7.582;2022-09-09T12:05:36;2.17;;;0.60;;
21677;SDS011;11000;50.360;7.582;2022-09-09T12:08:00;3.90;;;0.63;;
21677;SDS011;11000;50.360;7.582;2022-09-09T12:10:25;1.70;;;0.83;;
21677;SDS011;11000;50.360;7.582;2022-09-09T12:12:51;3.50;;;0.73;;
21677;SDS011;11000;50.360;7.582;2022-09-09T12:17:50;2.27;;;0.63;;
21677;SDS011;11000;50.360;7.582;2022-09-09T12:20:14;3.17;;;0.60;;
21677;SDS011;11000;50.360;7.582;2022-09-09T12:28:21;1.67;;;0.53;;
21677;SDS011;11000;50.360;7.582;2022-09-09T12:33:34;2.27;;;0.60;;
21677;SDS011;11000;50.360;7.582;2022-09-09T12:35:56;4.17;;;0.80;;
21677;SDS011;11000;50.360;7.582;2022-09-09T12:38:34;1.53;;;0.40;;
21677;SDS011;11000;50.360;7.582;2022-09-09T12:40:57;2.93;;;0.70;;
21677;SDS011;11000;50.360;7.582;2022-09-09T12:43:19;2.03;;;0.60;;
21677;SDS011;11000;50.360;7.582;2022-09-09T12:45:41;2.13;;;0.90;;
21677;SDS011;11000;50.360;7.582;2022-09-09T12:50:29;1.97;;;0.63;;
21677;SDS011;11000;50.360;7.582;2022-09-09T12:52:56;3.63;;;0.90;;
21677;SDS011;11000;50.360;7.582;2022-09-09T12:55:23;0.83;;;0.50;;
21677;SDS011;11000;50.360;7.582;2022-09-09T12:57:47;2.10;;;1.00;;
21677;SDS011;11000;50.360;7.582;2022-09-09T13:00:16;2.40;;;0.60;;
21677;SDS011;11000;50.360;7.582;2022-09-09T13:02:47;1.83;;;0.60;;
21677;SDS011;11000;50.360;7.582;2022-09-09T13:05:13;1.50;;;0.60;;
21677;SDS011;11000;50.360;7.582;2022-09-09T13:07:36;1.63;;;0.47;;
21677;SDS011;11000;50.360;7.582;2022-09-09T13:09:57;1.40;;;0.40;;
21677;SDS011;11000;50.360;7.582;2022-09-09T13:12:18;4.90;;;0.70;;
21677;SDS011;11000;50.360;7.582;2022-09-09T13:14:43;2.23;;;0.50;;
21677;SDS011;11000;50.360;7.582;2022-09-09T13:17:15;1.13;;;0.50;;
21677;SDS011;11000;50.360;7.582;2022-09-09T13:19:43;2.30;;;0.50;;
21677;SDS011;11000;50.360;7.582;2022-09-09T13:25:06;1.83;;;0.43;;
21677;SDS011;11000;50.360;7.582;2022-09-09T13:27:32;2.77;;;0.60;;
21677;SDS011;11000;50.360;7.582;2022-09-09T13:29:54;2.87;;;0.50;;
21677;SDS011;11000;50.360;7.582;2022-09-09T13:32:17;2.33;;;0.60;;
21677;SDS011;11000;50.360;7.582;2022-09-09T13:34:37;2.77;;;0.70;;
21677;SDS011;11000;50.360;7.582;2022-09-09T13:37:02;3.17;;;0.77;;
21677;SDS011;11000;50.360;7.582;2022-09-09T13:39:34;2.07;;;0.67;;
21677;SDS011;11000;50.360;7.582;2022-09-09T13:41:56;1.87;;;0.40;;
21677;SDS011;11000;50.360;7.582;2022-09-09T13:44:20;2.37;;;0.60;;
21677;SDS011;11000;50.360;7.582;2022-09-09T13:46:43;3.23;;;0.63;;
21677;SDS011;11000;50.360;7.582;2022-09-09T13:51:35;2.40;;;0.60;;
21677;SDS011;11000;50.360;7.582;2022-09-09T13:53:57;2.87;;;0.70;;
21677;SDS011;11000;50.360;7.582;2022-09-09T13:56:19;1.00;;;0.40;;
21677;SDS011;11000;50.360;7.582;2022-09-09T13:58:39;1.83;;;0.67;;
21677;SDS011;11000;50.360;7.582;2022-09-09T14:01:00;2.43;;;0.70;;
21677;SDS011;11000;50.360;7.582;2022-09-09T14:03:21;3.23;;;0.70;;
21677;SDS011;11000;50.360;7.582;2022-09-09T14:05:41;2.37;;;0.40;;
21677;SDS011;11000;50.360;7.582;2022-09-09T14:08:03;3.13;;;0.80;;
21677;SDS011;11000;50.360;7.582;2022-09-09T14:10:25;1.43;;;0.40;;
21677;SDS011;11000;50.360;7.582;2022-09-09T14:12:46;1.30;;;0.60;;
21677;SDS011;11000;50.360;7.582;2022-09-09T14:15:07;1.40;;;0.50;;
21677;SDS011;11000;50.360;7.582;2022-09-09T14:17:30;0.80;;;0.30;;
21677;SDS011;11000;50.360;7.582;2022-09-09T14:19:51;1.47;;;0.30;;
21677;SDS011;11000;50.360;7.582;2022-09-09T14:22:11;0.50;;;0.20;;
21677;SDS011;11000;50.360;7.582;2022-09-09T14:24:32;1.17;;;0.30;;
21677;SDS011;11000;50.360;7.582;2022-09-09T14:26:53;1.50;;;0.50;;
21677;SDS011;11000;50.360;7.582;2022-09-09T14:29:14;5.03;;;0.80;;
21677;SDS011;11000;50.360;7.582;2022-09-09T14:31:34;1.77;;;0.47;;
21677;SDS011;11000;50.360;7.582;2022-09-09T14:33:55;1.17;;;0.53;;
21677;SDS011;11000;50.360;7.582;2022-09-09T14:36:15;1.97;;;0.40;;
21677;SDS011;11000;50.360;7.582;2022-09-09T14:38:37;1.83;;;0.53;;
21677;SDS011;11000;50.360;7.582;2022-09-09T14:41:02;2.27;;;0.40;;
21677;SDS011;11000;50.360;7.582;2022-09-09T14:43:23;3.70;;;0.33;;
21677;SDS011;11000;50.360;7.582;2022-09-09T14:45:44;1.10;;;0.20;;
21677;SDS011;11000;50.360;7.582;2022-09-09T14:48:04;2.50;;;0.50;;
21677;SDS011;11000;50.360;7.582;2022-09-09T14:50:25;3.13;;;0.70;;
21677;SDS011;11000;50.360;7.582;2022-09-09T14:52:46;1.70;;;0.37;;
21677;SDS011;11000;50.360;7.582;2022-09-09T14:55:07;1.13;;;0.60;;
21677;SDS011;11000;50.360;7.582;2022-09-09T14:57:27;1.90;;;0.43;;
21677;SDS011;11000;50.360;7.582;2022-09-09T14:59:48;3.17;;;0.50;;
21677;SDS011;11000;50.360;7.582;2022-09-09T15:14:50;2.60;;;0.70;;
21677;SDS011;11000;50.360;7.582;2022-09-09T15:17:11;3.07;;;1.00;;
21677;SDS011;11000;50.360;7.582;2022-09-09T15:19:32;2.27;;;0.73;;
21677;SDS011;11000;50.360;7.582;2022-09-09T15:21:53;4.20;;;1.07;;
21677;SDS011;11000;50.360;7.582;2022-09-09T15:24:14;2.87;;;0.83;;
21677;SDS011;11000;50.360;7.582;2022-09-09T15:26:36;4.57;;;1.03;;
21677;SDS011;11000;50.360;7.582;2022-09-09T15:28:58;4.37;;;1.53;;
21677;SDS011;11000;50.360;7.582;2022-09-09T15:31:23;4.67;;;1.10;;
21677;SDS011;11000;50.360;7.582;2022-09-09T15:33:51;4.27;;;0.83;;
21677;SDS011;11000;50.360;7.582;2022-09-09T15:36:18;3.83;;;1.10;;
21677;SDS011;11000;50.360;7.582;2022-09-09T15:38:40;5.97;;;1.10;;
21677;SDS011;11000;50.360;7.582;2022-09-09T15:41:01;8.67;;;1.77;;
21677;SDS011;11000;50.360;7.582;2022-09-09T15:43:22;5.17;;;1.40;;
21677;SDS011;11000;50.360;7.582;2022-09-09T15:45:42;2.77;;;1.03;;
21677;SDS011;11000;50.360;7.582;2022-09-09T15:48:05;3.40;;;1.30;;
21677;SDS011;11000;50.360;7.582;2022-09-09T15:50:26;6.60;;;1.40;;
21677;SDS011;11000;50.360;7.582;2022-09-09T15:52:46;4.13;;;1.20;;
21677;SDS011;11000;50.360;7.582;2022-09-09T15:55:07;2.77;;;0.93;;
21677;SDS011;11000;50.360;7.582;2022-09-09T15:57:28;5.87;;;1.30;;
21677;SDS011;11000;50.360;7.582;2022-09-09T15:59:48;3.40;;;1.00;;
21677;SDS011;11000;50.360;7.582;2022-09-09T16:02:09;4.53;;;1.50;;
21677;SDS011;11000;50.360;7.582;2022-09-09T16:04:29;3.37;;;0.90;;
21677;SDS011;11000;50.360;7.582;2022-09-09T16:06:58;4.67;;;1.10;;
21677;SDS011;11000;50.360;7.582;2022-09-09T16:09:21;1.50;;;0.90;;
21677;SDS011;11000;50.360;7.582;2022-09-09T16:11:41;2.73;;;1.07;;
21677;SDS011;11000;50.360;7.582;2022-09-09T16:14:02;1.57;;;0.60;;
21677;SDS011;11000;50.360;7.582;2022-09-09T16:16:24;4.43;;;0.70;;
21677;SDS011;11000;50.360;7.582;2022-09-09T16:18:48;2.93;;;0.70;;
21677;SDS011;11000;50.360;7.582;2022-09-09T16:21:15;0.40;;;0.40;;
21677;SDS011;11000;50.360;7.582;2022-09-09T16:23:37;2.87;;;0.77;;
21677;SDS011;11000;50.360;7.582;2022-09-09T16:25:59;1.70;;;0.67;;
21677;SDS011;11000;50.360;7.582;2022-09-09T16:28:19;1.20;;;0.60;;
21677;SDS011;11000;50.360;7.582;2022-09-09T16:30:40;2.80;;;0.70;;
21677;SDS011;11000;50.360;7.582;2022-09-09T16:33:00;1.57;;;0.80;;
21677;SDS011;11000;50.360;7.582;2022-09-09T16:35:21;0.83;;;0.40;;
21677;SDS011;11000;50.360;7.582;2022-09-09T16:37:42;1.87;;;0.60;;
21677;SDS011;11000;50.360;7.582;2022-09-09T16:40:02;1.83;;;0.90;;